createdAt,value
2018-05-17T00:00:20.149Z,13.21
2018-05-17T00:00:55.237Z,13.12
2018-05-17T00:01:30.845Z,13.15
2018-05-17T00:02:06.087Z,13.06
2018-05-17T00:02:41.766Z,13.09
2018-05-17T00:03:17.151Z,13.04
2018-05-17T00:03:52.663Z,13.07
2018-05-17T00:04:27.990Z,13.07
2018-05-17T00:05:03.476Z,13.00
2018-05-17T00:05:38.947Z,12.99
2018-05-17T00:06:14.373Z,13.03
2018-05-17T00:06:49.896Z,13.02
2018-05-17T00:07:25.174Z,13.03
2018-05-17T00:08:00.837Z,13.04
2018-05-17T00:08:36.411Z,13.06
2018-05-17T00:09:12.199Z,13.07
2018-05-17T00:09:47.333Z,12.99
2018-05-17T00:10:22.917Z,13.02
2018-05-17T00:10:58.259Z,13.00
2018-05-17T00:11:33.442Z,12.93
2018-05-17T00:12:08.654Z,13.03
2018-05-17T00:12:44.074Z,13.00
2018-05-17T00:13:19.777Z,13.02
2018-05-17T00:13:55.567Z,12.88
2018-05-17T00:14:31.480Z,12.89
2018-05-17T00:15:06.758Z,12.93
2018-05-17T00:15:42.009Z,12.99
2018-05-17T00:16:17.439Z,12.92
2018-05-17T00:16:52.721Z,12.85
2018-05-17T00:17:27.995Z,12.96
2018-05-17T00:18:03.371Z,12.97
2018-05-17T00:18:38.944Z,12.89
2018-05-17T00:19:14.402Z,12.85
2018-05-17T00:19:49.995Z,12.87
2018-05-17T00:20:25.648Z,12.87
2018-05-17T00:21:00.786Z,12.77
2018-05-17T00:21:36.289Z,12.89
2018-05-17T00:22:11.888Z,12.79
2018-05-17T00:22:47.236Z,12.82
2018-05-17T00:23:22.896Z,12.77
2018-05-17T00:23:58.223Z,12.81
2018-05-17T00:24:33.620Z,12.77
2018-05-17T00:25:08.879Z,12.77
2018-05-17T00:25:44.419Z,12.78
2018-05-17T00:26:20.001Z,12.71
2018-05-17T00:26:55.432Z,12.77
2018-05-17T00:27:30.733Z,12.62
2018-05-17T00:28:06.345Z,12.60
2018-05-17T00:28:41.415Z,12.69
2018-05-17T00:29:16.745Z,12.67
2018-05-17T00:29:52.254Z,12.67
2018-05-17T00:30:27.825Z,12.66
2018-05-17T00:31:03.284Z,12.70
2018-05-17T00:31:38.946Z,12.69
2018-05-17T00:32:14.205Z,12.67
2018-05-17T00:32:49.642Z,12.77
2018-05-17T00:33:25.156Z,12.66
2018-05-17T00:34:00.412Z,12.75
2018-05-17T00:34:35.870Z,12.77
2018-05-17T00:35:11.193Z,12.69
2018-05-17T00:35:46.835Z,12.64
2018-05-17T00:36:22.602Z,12.67
2018-05-17T00:36:58.052Z,12.66
2018-05-17T00:37:33.253Z,12.67
2018-05-17T00:38:09.137Z,12.60
2018-05-17T00:38:44.427Z,12.64
2018-05-17T00:39:19.828Z,12.59
2018-05-17T00:39:55.513Z,12.67
2018-05-17T00:40:31.150Z,12.69
2018-05-17T00:41:06.448Z,12.69
2018-05-17T00:41:41.889Z,12.74
2018-05-17T00:42:17.133Z,12.66
2018-05-17T00:42:52.717Z,12.67
2018-05-17T00:43:28.152Z,12.64
2018-05-17T00:44:03.351Z,12.64
2018-05-17T00:44:38.917Z,12.67
2018-05-17T00:45:14.465Z,12.66
2018-05-17T00:45:50.153Z,12.60
2018-05-17T00:46:25.685Z,12.69
2018-05-17T00:47:01.238Z,12.69
2018-05-17T00:47:36.770Z,12.69
2018-05-17T00:48:12.609Z,12.62
2018-05-17T00:48:48.157Z,12.62
2018-05-17T00:49:23.292Z,12.64
2018-05-17T00:49:58.620Z,12.57
2018-05-17T00:50:34.315Z,12.71
2018-05-17T00:51:10.156Z,12.67
2018-05-17T00:51:45.454Z,12.66
2018-05-17T00:52:20.823Z,12.63
2018-05-17T00:52:56.084Z,12.66
2018-05-17T00:53:31.214Z,12.66
2018-05-17T00:54:06.541Z,12.66
2018-05-17T00:54:41.884Z,12.70
2018-05-17T00:55:17.266Z,12.60
2018-05-17T00:55:52.875Z,12.66
2018-05-17T00:56:28.447Z,12.64
2018-05-17T00:57:04.298Z,12.62
2018-05-17T00:57:39.499Z,12.69
2018-05-17T00:58:14.754Z,12.75
2018-05-17T00:58:50.510Z,12.82
2018-05-17T00:59:25.880Z,12.77
2018-05-17T01:00:00.971Z,12.74
2018-05-17T01:00:36.807Z,12.74
2018-05-17T01:01:12.090Z,12.78
2018-05-17T01:01:47.411Z,12.81
2018-05-17T01:02:22.909Z,12.70
2018-05-17T01:02:58.247Z,12.78
2018-05-17T01:03:33.972Z,12.71
2018-05-17T01:04:09.197Z,12.77
2018-05-17T01:04:45.045Z,12.77
2018-05-17T01:05:20.618Z,12.78
2018-05-17T01:05:56.197Z,12.81
2018-05-17T01:06:31.535Z,12.75
2018-05-17T01:07:06.949Z,12.85
2018-05-17T01:07:42.232Z,12.95
2018-05-17T01:28:44.853Z,12.88
2018-05-17T01:29:20.260Z,12.81
2018-05-17T01:29:55.603Z,12.89
2018-05-17T01:30:31.125Z,12.99
2018-05-17T01:31:06.464Z,12.97
2018-05-17T01:31:41.861Z,12.96
2018-05-17T01:32:17.349Z,12.99
2018-05-17T01:32:52.764Z,12.96
2018-05-17T01:33:28.383Z,12.99
2018-05-17T01:34:03.832Z,12.87
2018-05-17T01:34:39.085Z,12.84
2018-05-17T01:35:14.346Z,12.96
2018-05-17T01:35:49.565Z,12.81
2018-05-17T01:36:25.024Z,12.88
2018-05-17T01:37:00.571Z,12.92
2018-05-17T01:37:35.802Z,12.84
2018-05-17T01:38:11.045Z,12.85
2018-05-17T01:38:46.619Z,12.85
2018-05-17T01:39:21.982Z,12.77
2018-05-17T01:39:57.296Z,12.78
2018-05-17T01:40:32.664Z,12.74
2018-05-17T01:41:08.051Z,12.79
2018-05-17T01:41:43.453Z,12.69
2018-05-17T01:42:18.928Z,12.77
2018-05-17T01:42:54.448Z,12.81
2018-05-17T01:43:29.992Z,12.75
2018-05-17T01:44:05.242Z,12.71
2018-05-17T01:44:41.077Z,12.67
2018-05-17T01:45:16.349Z,12.70
2018-05-17T01:45:51.752Z,12.63
2018-05-17T01:46:27.280Z,12.66
2018-05-17T01:47:02.638Z,12.69
2018-05-17T01:47:38.319Z,12.63
2018-05-17T01:48:13.859Z,12.70
2018-05-17T01:48:49.348Z,12.69
2018-05-17T01:49:24.545Z,12.67
2018-05-17T01:50:00.270Z,12.71
2018-05-17T01:50:35.860Z,12.79
2018-05-17T01:51:11.195Z,12.71
2018-05-17T01:51:46.356Z,12.69
2018-05-17T01:52:21.617Z,12.67
2018-05-17T01:52:57.261Z,12.67
2018-05-17T01:53:32.761Z,12.64
2018-05-17T01:54:08.386Z,12.62
2018-05-17T01:54:43.693Z,12.64
2018-05-17T01:55:24.429Z,12.64
2018-05-17T01:55:59.845Z,12.52
2018-05-17T01:56:34.952Z,12.60
2018-05-17T01:57:10.427Z,12.62
2018-05-17T01:57:46.066Z,12.62
2018-05-17T01:58:21.462Z,12.60
2018-05-17T01:58:56.746Z,12.60
2018-05-17T01:59:32.020Z,12.62
2018-05-17T02:00:07.320Z,12.51
2018-05-17T02:00:43.410Z,12.52
2018-05-17T02:01:18.742Z,12.57
2018-05-17T02:01:53.622Z,12.46
2018-05-17T02:02:28.929Z,12.51
2018-05-17T02:03:04.409Z,12.52
2018-05-17T02:03:39.664Z,12.48
2018-05-17T02:04:14.814Z,12.54
2018-05-17T02:04:50.084Z,12.52
2018-05-17T02:05:25.570Z,12.42
2018-05-17T02:06:00.916Z,12.33
2018-05-17T02:06:36.300Z,12.44
2018-05-17T02:07:11.735Z,12.52
2018-05-17T02:07:47.255Z,12.46
2018-05-17T02:08:22.615Z,12.46
2018-05-17T02:08:58.269Z,12.48
2018-05-17T02:09:33.461Z,12.38
2018-05-17T02:10:08.738Z,12.48
2018-05-17T02:10:45.951Z,12.45
2018-05-17T02:11:21.551Z,12.51
2018-05-17T02:11:56.901Z,12.49
2018-05-17T02:12:32.553Z,12.46
2018-05-17T02:13:07.895Z,12.46
2018-05-17T02:13:43.376Z,12.51
2018-05-17T02:14:19.315Z,12.46
2018-05-17T02:14:54.471Z,12.46
2018-05-17T02:15:29.842Z,12.57
2018-05-17T02:16:05.724Z,12.54
2018-05-17T02:16:40.953Z,12.54
2018-05-17T02:17:16.458Z,12.52
2018-05-17T02:17:51.823Z,12.49
2018-05-17T02:18:27.017Z,12.56
2018-05-17T02:19:02.244Z,12.62
2018-05-17T02:19:37.520Z,12.56
2018-05-17T02:20:13.262Z,12.56
2018-05-17T02:20:49.326Z,12.49
2018-05-17T02:21:25.106Z,12.41
2018-05-17T02:22:00.936Z,12.48
2018-05-17T02:22:36.705Z,12.52
2018-05-17T02:23:12.276Z,12.54
2018-05-17T02:23:47.493Z,12.33
2018-05-17T02:24:22.811Z,12.39
2018-05-17T02:24:58.126Z,12.44
2018-05-17T02:25:33.728Z,12.41
2018-05-17T02:26:09.188Z,12.34
2018-05-17T02:26:44.685Z,12.42
2018-05-17T02:27:20.343Z,12.39
2018-05-17T02:27:55.686Z,12.37
2018-05-17T02:28:31.008Z,12.38
2018-05-17T02:29:06.339Z,12.42
2018-05-17T02:29:41.823Z,12.38
2018-05-17T02:30:17.243Z,12.41
2018-05-17T02:30:52.353Z,12.29
2018-05-17T02:31:27.941Z,12.34
2018-05-17T02:32:03.579Z,12.44
2018-05-17T02:32:39.037Z,12.37
2018-05-17T02:33:14.280Z,12.41
2018-05-17T02:33:49.790Z,12.38
2018-05-17T02:34:25.163Z,12.41
2018-05-17T02:35:00.698Z,12.41
2018-05-17T02:35:36.273Z,12.38
2018-05-17T02:36:11.468Z,12.31
2018-05-17T02:36:46.809Z,12.39
2018-05-17T02:37:22.310Z,12.38
2018-05-17T02:37:57.832Z,12.39
2018-05-17T02:38:33.629Z,12.39
2018-05-17T02:39:08.852Z,12.44
2018-05-17T02:39:44.641Z,12.45
2018-05-17T02:40:20.017Z,12.56
2018-05-17T02:40:55.331Z,12.41
2018-05-17T02:41:30.807Z,12.46
2018-05-17T02:42:06.091Z,12.46
2018-05-17T02:42:41.428Z,12.45
2018-05-17T02:43:17.011Z,12.41
2018-05-17T02:43:52.119Z,12.31
2018-05-17T02:44:27.508Z,12.44
2018-05-17T02:45:02.894Z,12.41
2018-05-17T02:45:38.250Z,12.48
2018-05-17T02:46:13.808Z,12.45
2018-05-17T02:46:49.284Z,12.46
2018-05-17T02:47:24.483Z,12.46
2018-05-17T02:47:59.724Z,12.44
2018-05-17T02:48:35.166Z,12.52
2018-05-17T02:49:10.489Z,12.54
2018-05-17T02:49:46.011Z,12.51
2018-05-17T02:50:21.283Z,12.48
2018-05-17T02:50:56.579Z,12.46
2018-05-17T02:51:32.248Z,12.57
2018-05-17T02:52:07.602Z,12.52
2018-05-17T02:52:42.966Z,12.54
2018-05-17T02:53:18.426Z,12.67
2018-05-17T02:53:53.929Z,12.57
2018-05-17T02:54:29.713Z,12.70
2018-05-17T02:55:05.328Z,12.67
2018-05-17T02:55:40.809Z,12.69
2018-05-17T02:56:16.247Z,12.70
2018-05-17T02:56:51.572Z,12.71
2018-05-17T02:57:27.151Z,12.71
2018-05-17T02:58:02.971Z,12.69
2018-05-17T02:58:38.305Z,12.64
2018-05-17T02:59:13.596Z,12.74
2018-05-17T02:59:49.240Z,12.66
2018-05-17T03:00:24.647Z,12.63
2018-05-17T03:01:00.031Z,12.60
2018-05-17T03:01:35.529Z,12.46
2018-05-17T03:02:10.821Z,12.66
2018-05-17T03:02:46.085Z,12.54
2018-05-17T03:03:21.372Z,12.44
2018-05-17T03:03:56.539Z,12.48
2018-05-17T03:04:31.777Z,12.44
2018-05-17T03:05:07.979Z,12.60
2018-05-17T03:05:43.334Z,12.56
2018-05-17T03:06:18.554Z,12.56
2018-05-17T03:06:53.910Z,12.51
2018-05-17T03:07:29.641Z,12.57
2018-05-17T03:08:05.024Z,12.51
2018-05-17T03:08:40.469Z,12.49
2018-05-17T03:09:15.794Z,12.60
2018-05-17T03:09:51.108Z,12.56
2018-05-17T03:10:26.395Z,12.63
2018-05-17T03:11:02.059Z,12.57
2018-05-17T03:11:37.130Z,12.46
2018-05-17T03:12:12.689Z,12.52
2018-05-17T03:12:48.312Z,12.49
2018-05-17T03:13:23.853Z,12.37
2018-05-17T03:14:00.757Z,12.34
2018-05-17T03:14:36.342Z,12.39
2018-05-17T03:15:11.566Z,12.42
2018-05-17T03:15:46.835Z,12.42
2018-05-17T03:16:22.503Z,12.37
2018-05-17T03:16:57.863Z,12.52
2018-05-17T03:17:33.404Z,12.45
2018-05-17T03:18:08.630Z,12.41
2018-05-17T03:18:43.970Z,12.44
2018-05-17T03:19:19.097Z,12.38
2018-05-17T03:19:54.518Z,12.39
2018-05-17T03:20:29.699Z,12.42
2018-05-17T03:21:05.149Z,12.38
2018-05-17T03:21:40.574Z,12.44
2018-05-17T03:22:15.739Z,12.41
2018-05-17T03:22:51.411Z,12.37
2018-05-17T03:23:26.762Z,12.39
2018-05-17T03:24:02.467Z,12.42
2018-05-17T03:24:37.835Z,12.44
2018-05-17T03:25:13.231Z,12.42
2018-05-17T03:25:48.432Z,12.37
2018-05-17T03:26:24.334Z,12.41
2018-05-17T03:26:59.803Z,12.38
2018-05-17T03:27:35.303Z,12.34
2018-05-17T03:28:10.845Z,12.33
2018-05-17T03:28:46.182Z,12.42
2018-05-17T03:29:21.600Z,12.34
2018-05-17T03:29:56.995Z,12.29
2018-05-17T03:30:32.660Z,12.31
2018-05-17T03:31:07.983Z,12.29
2018-05-17T03:31:43.168Z,12.39
2018-05-17T03:32:18.491Z,12.37
2018-05-17T03:32:54.077Z,12.31
2018-05-17T03:33:29.699Z,12.38
2018-05-17T03:34:04.930Z,12.42
2018-05-17T03:34:40.311Z,12.42
2018-05-17T03:35:15.757Z,12.41
2018-05-17T03:35:51.399Z,12.29
2018-05-17T03:36:29.618Z,12.30
2018-05-17T03:37:04.743Z,12.26
2018-05-17T03:37:39.997Z,12.37
2018-05-17T03:38:15.533Z,12.33
2018-05-17T03:38:50.728Z,12.46
2018-05-17T03:39:26.112Z,12.39
2018-05-17T03:40:01.666Z,12.34
2018-05-17T03:40:37.228Z,12.46
2018-05-17T03:41:12.664Z,12.42
2018-05-17T03:41:47.912Z,12.44
2018-05-17T03:42:24.048Z,12.34
2018-05-17T03:42:59.430Z,12.45
2018-05-17T03:43:34.795Z,12.30
2018-05-17T03:44:09.913Z,12.38
2018-05-17T03:44:45.214Z,12.42
2018-05-17T03:45:20.585Z,12.42
2018-05-17T03:45:55.836Z,12.44
2018-05-17T03:46:31.483Z,12.24
2018-05-17T03:47:06.538Z,12.29
2018-05-17T03:47:41.943Z,12.31
2018-05-17T03:48:17.494Z,12.41
2018-05-17T03:48:52.698Z,12.38
2018-05-17T03:49:28.034Z,12.31
2018-05-17T03:50:03.331Z,12.39
2018-05-17T03:50:39.233Z,12.39
2018-05-17T03:51:14.354Z,12.42
2018-05-17T03:51:49.618Z,12.33
2018-05-17T03:52:25.179Z,12.27
2018-05-17T03:53:00.572Z,12.38
2018-05-17T03:53:35.980Z,12.27
2018-05-17T03:54:11.718Z,12.45
2018-05-17T03:54:47.255Z,12.42
2018-05-17T03:55:22.513Z,12.44
2018-05-17T03:55:58.047Z,12.41
2018-05-17T03:56:33.642Z,12.49
2018-05-17T03:57:09.099Z,12.30
2018-05-17T03:57:44.372Z,12.46
2018-05-17T03:58:19.677Z,12.54
2018-05-17T03:58:54.763Z,12.49
2018-05-17T03:59:30.082Z,12.41
2018-05-17T04:00:05.623Z,12.51
2018-05-17T04:00:42.297Z,12.41
2018-05-17T04:01:17.577Z,12.46
2018-05-17T04:01:52.823Z,12.42
2018-05-17T04:02:28.391Z,12.39
2018-05-17T04:03:03.592Z,12.39
2018-05-17T04:03:39.279Z,12.42
2018-05-17T04:04:14.657Z,12.39
2018-05-17T04:04:49.901Z,12.39
2018-05-17T04:05:25.145Z,12.45
2018-05-17T04:06:00.554Z,12.42
2018-05-17T04:06:35.964Z,12.42
2018-05-17T04:07:11.095Z,12.38
2018-05-17T04:07:46.332Z,12.37
2018-05-17T04:08:21.419Z,12.44
2018-05-17T04:08:56.809Z,12.41
2018-05-17T04:09:32.098Z,12.44
2018-05-17T04:10:07.647Z,12.51
2018-05-17T04:10:43.055Z,12.51
2018-05-17T04:11:18.694Z,12.49
2018-05-17T04:11:53.853Z,12.52
2018-05-17T04:12:29.353Z,12.51
2018-05-17T04:13:04.665Z,12.46
2018-05-17T04:13:39.910Z,12.42
2018-05-17T04:14:15.128Z,12.48
2018-05-17T04:14:50.939Z,12.48
2018-05-17T04:15:26.245Z,12.52
2018-05-17T04:16:01.902Z,12.48
2018-05-17T04:16:37.297Z,12.48
2018-05-17T04:17:12.874Z,12.51
2018-05-17T04:17:48.125Z,12.54
2018-05-17T04:18:23.344Z,12.48
2018-05-17T04:18:58.523Z,12.49
2018-05-17T04:19:33.891Z,12.49
2018-05-17T04:20:09.300Z,12.51
2018-05-17T04:20:46.095Z,12.44
2018-05-17T04:21:21.729Z,12.49
2018-05-17T04:21:57.034Z,12.41
2018-05-17T04:22:32.551Z,12.59
2018-05-17T04:23:07.871Z,12.51
2018-05-17T04:23:42.989Z,12.48
2018-05-17T04:24:18.361Z,12.44
2018-05-17T04:24:53.590Z,12.45
2018-05-17T04:25:28.812Z,12.48
2018-05-17T04:26:03.898Z,12.52
2018-05-17T04:26:39.754Z,12.42
2018-05-17T04:27:15.456Z,12.48
2018-05-17T04:27:50.629Z,12.52
2018-05-17T04:28:25.954Z,12.37
2018-05-17T04:29:01.252Z,12.38
2018-05-17T04:29:36.475Z,12.48
2018-05-17T04:30:12.053Z,12.51
2018-05-17T04:30:47.923Z,12.51
2018-05-17T04:31:23.557Z,12.52
2018-05-17T04:31:59.316Z,12.51
2018-05-17T04:32:34.760Z,12.51
2018-05-17T04:33:10.222Z,12.45
2018-05-17T04:33:45.458Z,12.63
2018-05-17T04:34:20.813Z,12.48
2018-05-17T04:34:56.133Z,12.59
2018-05-17T04:35:31.570Z,12.56
2018-05-17T04:36:06.895Z,12.62
2018-05-17T04:36:42.290Z,12.59
2018-05-17T04:37:18.047Z,12.57
2018-05-17T04:37:53.420Z,12.66
2018-05-17T04:38:29.176Z,12.60
2018-05-17T04:39:04.541Z,12.56
2018-05-17T04:39:39.925Z,12.60
2018-05-17T04:40:15.256Z,12.66
2018-05-17T04:40:50.548Z,12.62
2018-05-17T04:41:25.839Z,12.59
2018-05-17T04:42:00.969Z,12.59
2018-05-17T04:42:36.294Z,12.67
2018-05-17T04:43:11.866Z,12.60
2018-05-17T04:43:47.148Z,12.62
2018-05-17T04:44:23.117Z,12.57
2018-05-17T04:44:58.347Z,12.57
2018-05-17T04:45:33.956Z,12.60
2018-05-17T04:46:09.259Z,12.60
2018-05-17T04:46:44.642Z,12.52
2018-05-17T04:47:19.910Z,12.56
2018-05-17T04:47:55.662Z,12.52
2018-05-17T04:48:30.962Z,12.49
2018-05-17T04:49:06.305Z,12.51
2018-05-17T04:49:41.481Z,12.52
2018-05-17T04:50:16.953Z,12.52
2018-05-17T04:50:52.240Z,12.62
2018-05-17T04:51:27.554Z,12.63
2018-05-17T04:52:02.906Z,12.69
2018-05-17T04:52:38.396Z,12.62
2018-05-17T04:53:13.729Z,12.62
2018-05-17T04:53:48.896Z,12.69
2018-05-17T04:54:24.278Z,12.71
2018-05-17T04:54:59.821Z,12.71
2018-05-17T04:55:35.363Z,12.75
2018-05-17T04:56:11.056Z,12.81
2018-05-17T04:56:46.533Z,12.77
2018-05-17T04:57:21.963Z,12.75
2018-05-17T04:57:57.346Z,12.78
2018-05-17T04:58:32.893Z,12.82
2018-05-17T04:59:08.326Z,12.74
2018-05-17T04:59:43.663Z,12.70
2018-05-17T05:00:19.049Z,12.77
2018-05-17T05:00:54.473Z,12.74
2018-05-17T05:01:29.578Z,12.75
2018-05-17T05:02:04.910Z,12.75
2018-05-17T05:02:40.219Z,12.79
2018-05-17T05:03:15.858Z,12.75
2018-05-17T05:03:51.140Z,12.70
2018-05-17T05:04:26.656Z,12.79
2018-05-17T05:05:01.961Z,12.79
2018-05-17T05:05:37.074Z,12.82
2018-05-17T05:06:12.303Z,12.75
2018-05-17T05:06:47.808Z,12.82
2018-05-17T05:07:23.321Z,12.84
2018-05-17T05:07:58.575Z,12.82
2018-05-17T05:08:33.939Z,12.87
2018-05-17T05:09:08.997Z,12.81
2018-05-17T05:09:44.267Z,12.92
2018-05-17T05:10:19.619Z,12.92
2018-05-17T05:10:55.471Z,12.97
2018-05-17T05:11:30.753Z,12.89
2018-05-17T05:12:05.935Z,12.95
2018-05-17T05:12:41.487Z,13.02
2018-05-17T05:13:16.964Z,12.97
2018-05-17T05:13:52.371Z,12.89
2018-05-17T05:14:27.624Z,13.02
2018-05-17T05:15:03.072Z,12.92
2018-05-17T05:15:38.300Z,13.03
2018-05-17T05:16:13.406Z,12.97
2018-05-17T05:16:48.616Z,13.00
2018-05-17T05:17:24.368Z,13.03
2018-05-17T05:17:59.729Z,13.02
2018-05-17T05:18:35.293Z,12.99
2018-05-17T05:19:10.997Z,13.03
2018-05-17T05:19:46.352Z,13.07
2018-05-17T05:20:21.482Z,13.09
2018-05-17T05:20:56.899Z,13.15
2018-05-17T05:21:32.235Z,13.20
2018-05-17T05:22:07.500Z,13.29
2018-05-17T05:22:42.883Z,13.27
2018-05-17T05:23:18.214Z,13.22
2018-05-17T05:23:53.340Z,13.15
2018-05-17T05:24:28.463Z,13.17
2018-05-17T05:25:03.885Z,13.15
2018-05-17T05:25:39.086Z,13.14
2018-05-17T05:26:14.609Z,13.15
2018-05-17T05:26:49.929Z,13.06
2018-05-17T05:27:25.218Z,13.03
2018-05-17T05:28:00.820Z,13.06
2018-05-17T05:28:36.207Z,13.03
2018-05-17T05:29:11.505Z,13.11
2018-05-17T05:29:47.240Z,13.15
2018-05-17T05:30:22.630Z,13.18
2018-05-17T05:30:58.280Z,13.06
2018-05-17T05:31:33.875Z,13.09
2018-05-17T05:32:09.182Z,13.12
2018-05-17T05:32:44.685Z,13.02
2018-05-17T05:33:20.042Z,13.11
2018-05-17T05:33:55.497Z,13.12
2018-05-17T05:34:30.861Z,13.07
2018-05-17T05:35:05.946Z,13.15
2018-05-17T05:35:43.547Z,13.21
2018-05-17T05:36:19.140Z,13.07
2018-05-17T05:36:54.440Z,13.09
2018-05-17T05:37:30.064Z,13.04
2018-05-17T05:38:05.756Z,13.07
2018-05-17T05:38:41.032Z,13.11
2018-05-17T05:39:16.513Z,13.03
2018-05-17T05:39:52.097Z,13.09
2018-05-17T05:40:27.329Z,13.11
2018-05-17T05:41:02.890Z,13.20
2018-05-17T05:41:38.128Z,13.06
2018-05-17T05:42:13.396Z,13.04
2018-05-17T05:42:48.445Z,13.03
2018-05-17T05:43:23.939Z,13.17
2018-05-17T05:43:59.405Z,13.14
2018-05-17T05:44:35.059Z,13.21
2018-05-17T05:45:10.420Z,13.18
2018-05-17T05:45:46.074Z,13.15
2018-05-17T05:46:21.541Z,13.24
2018-05-17T05:46:57.375Z,13.11
2018-05-17T05:47:32.575Z,13.21
2018-05-17T05:48:07.578Z,13.25
2018-05-17T05:48:43.335Z,13.22
2018-05-17T05:49:19.000Z,13.36
2018-05-17T05:49:54.118Z,13.30
2018-05-17T05:50:29.386Z,13.29
2018-05-17T05:51:04.677Z,13.37
2018-05-17T05:51:40.063Z,13.44
2018-05-17T05:52:15.501Z,13.41
2018-05-17T05:52:51.025Z,13.52
2018-05-17T05:53:26.432Z,13.40
2018-05-17T05:54:01.691Z,13.40
2018-05-17T05:54:37.075Z,13.47
2018-05-17T05:55:12.386Z,13.54
2018-05-17T05:55:48.001Z,13.46
2018-05-17T05:56:23.734Z,13.44
2018-05-17T05:56:59.297Z,13.55
2018-05-17T05:57:34.655Z,13.49
2018-05-17T05:58:09.881Z,13.59
2018-05-17T05:58:45.183Z,13.49
2018-05-17T05:59:20.629Z,13.49
2018-05-17T05:59:56.032Z,13.49
2018-05-17T06:00:31.294Z,13.49
2018-05-17T06:01:07.480Z,13.52
2018-05-17T06:01:42.788Z,13.49
2018-05-17T06:02:18.046Z,13.58
2018-05-17T06:02:53.410Z,13.51
2018-05-17T06:03:29.024Z,13.59
2018-05-17T06:04:04.240Z,13.56
2018-05-17T06:04:39.607Z,13.54
2018-05-17T06:05:15.453Z,13.51
2018-05-17T06:05:54.320Z,13.52
2018-05-17T06:06:29.559Z,13.46
2018-05-17T06:07:04.770Z,13.54
2018-05-17T06:07:39.990Z,13.52
2018-05-17T06:08:15.070Z,13.59
2018-05-17T06:08:50.634Z,13.56
2018-05-17T06:09:26.189Z,13.54
2018-05-17T06:10:01.803Z,13.56
2018-05-17T06:10:36.981Z,13.55
2018-05-17T06:11:12.702Z,13.59
2018-05-17T06:11:48.089Z,13.65
2018-05-17T06:12:23.497Z,13.52
2018-05-17T06:12:59.010Z,13.54
2018-05-17T06:13:34.402Z,13.52
2018-05-17T06:14:09.594Z,13.58
2018-05-17T06:14:44.731Z,13.69
2018-05-17T06:15:19.986Z,13.70
2018-05-17T06:15:55.178Z,13.74
2018-05-17T06:16:30.872Z,13.77
2018-05-17T06:17:06.278Z,13.65
2018-05-17T06:17:41.708Z,13.67
2018-05-17T06:18:16.832Z,13.74
2018-05-17T06:18:52.497Z,13.59
2018-05-17T06:19:27.868Z,13.65
2018-05-17T06:20:03.168Z,13.58
2018-05-17T06:20:38.692Z,13.61
2018-05-17T06:21:14.187Z,13.62
2018-05-17T06:21:49.817Z,13.65
2018-05-17T06:22:25.433Z,13.61
2018-05-17T06:23:00.760Z,13.56
2018-05-17T06:23:36.193Z,13.54
2018-05-17T06:24:11.530Z,13.65
2018-05-17T06:24:46.653Z,13.58
2018-05-17T06:25:22.066Z,13.61
2018-05-17T06:25:57.386Z,13.55
2018-05-17T06:26:33.279Z,13.59
2018-05-17T06:27:08.774Z,13.56
2018-05-17T06:27:44.617Z,13.67
2018-05-17T06:28:20.193Z,13.56
2018-05-17T06:28:55.696Z,13.65
2018-05-17T06:29:31.387Z,13.63
2018-05-17T06:30:06.962Z,13.76
2018-05-17T06:30:44.440Z,13.73
2018-05-17T06:31:19.801Z,13.77
2018-05-17T06:31:55.345Z,13.77
2018-05-17T06:32:30.717Z,13.81
2018-05-17T06:33:06.104Z,13.81
2018-05-17T06:33:41.413Z,13.83
2018-05-17T06:34:16.818Z,13.81
2018-05-17T06:34:55.505Z,13.88
2018-05-17T06:35:30.960Z,13.95
2018-05-17T06:36:06.417Z,14.01
2018-05-17T06:36:43.347Z,13.96
2018-05-17T06:37:18.471Z,14.02
2018-05-17T06:37:53.961Z,13.99
2018-05-17T06:38:29.296Z,14.07
2018-05-17T06:39:04.769Z,14.01
2018-05-17T06:39:40.077Z,14.07
2018-05-17T06:40:15.386Z,14.06
2018-05-17T06:40:53.854Z,14.04
2018-05-17T06:41:29.123Z,14.07
2018-05-17T06:42:04.277Z,14.02
2018-05-17T06:42:40.217Z,13.95
2018-05-17T06:43:15.467Z,14.04
2018-05-17T06:43:50.604Z,14.07
2018-05-17T06:44:25.981Z,14.09
2018-05-17T06:45:01.363Z,14.09
2018-05-17T06:45:36.687Z,14.14
2018-05-17T06:46:12.217Z,14.14
2018-05-17T06:46:47.546Z,14.19
2018-05-17T06:47:23.079Z,14.27
2018-05-17T06:47:58.442Z,14.25
2018-05-17T06:48:33.734Z,14.24
2018-05-17T06:49:09.087Z,14.27
2018-05-17T06:49:44.835Z,14.35
2018-05-17T06:50:20.593Z,14.46
2018-05-17T06:50:56.135Z,14.44
2018-05-17T06:51:31.741Z,14.37
2018-05-17T06:52:07.103Z,14.42
2018-05-17T06:52:42.204Z,14.50
2018-05-17T06:53:17.610Z,14.49
2018-05-17T06:53:52.732Z,14.53
2018-05-17T06:54:28.247Z,14.49
2018-05-17T06:55:03.879Z,14.61
2018-05-17T06:55:39.186Z,14.57
2018-05-17T06:56:14.379Z,14.69
2018-05-17T06:56:50.336Z,14.72
2018-05-17T06:57:25.680Z,14.74
2018-05-17T06:58:01.171Z,14.80
2018-05-17T06:58:36.457Z,14.72
2018-05-17T06:59:11.836Z,14.84
2018-05-17T06:59:47.298Z,14.91
2018-05-17T07:00:22.661Z,14.94
2018-05-17T07:01:00.680Z,14.99
2018-05-17T07:01:37.917Z,15.02
2018-05-17T07:02:13.216Z,15.01
2018-05-17T07:02:48.532Z,14.93
2018-05-17T07:03:23.666Z,15.01
2018-05-17T07:03:59.345Z,15.08
2018-05-17T07:04:34.615Z,15.05
2018-05-17T07:05:09.988Z,15.21
2018-05-17T07:05:45.229Z,15.12
2018-05-17T07:06:20.451Z,15.20
2018-05-17T07:06:55.868Z,15.20
2018-05-17T07:07:31.180Z,15.21
2018-05-17T07:08:06.492Z,15.23
2018-05-17T07:08:41.992Z,15.21
2018-05-17T07:09:17.710Z,15.08
2018-05-17T07:09:52.729Z,15.05
2018-05-17T07:10:28.109Z,15.13
2018-05-17T07:11:03.718Z,15.19
2018-05-17T07:11:38.880Z,15.21
2018-05-17T07:12:14.435Z,15.21
2018-05-17T07:12:50.220Z,15.26
2018-05-17T07:13:25.596Z,15.31
2018-05-17T07:14:00.990Z,15.27
2018-05-17T07:14:36.311Z,15.23
2018-05-17T07:15:11.967Z,15.26
2018-05-17T07:15:47.654Z,15.30
2018-05-17T07:16:24.720Z,15.36
2018-05-17T07:17:00.584Z,15.42
2018-05-17T07:17:36.247Z,15.48
2018-05-17T07:18:11.611Z,15.64
2018-05-17T07:18:47.355Z,15.61
2018-05-17T07:19:22.629Z,15.67
2018-05-17T07:19:57.930Z,15.78
2018-05-17T07:20:33.316Z,15.84
2018-05-17T07:21:08.769Z,16.00
2018-05-17T07:21:44.268Z,16.09
2018-05-17T07:22:19.464Z,16.16
2018-05-17T07:22:54.675Z,16.23
2018-05-17T07:23:29.950Z,16.30
2018-05-17T07:24:05.511Z,16.40
2018-05-17T07:24:41.338Z,16.56
2018-05-17T07:25:16.611Z,16.81
2018-05-17T07:25:51.985Z,17.06
2018-05-17T07:26:27.557Z,17.03
2018-05-17T07:27:02.836Z,17.10
2018-05-17T07:27:40.551Z,17.25
2018-05-17T07:28:15.647Z,17.33
2018-05-17T07:28:50.978Z,17.47
2018-05-17T07:29:26.395Z,17.57
2018-05-17T07:30:01.618Z,17.76
2018-05-17T07:30:38.142Z,17.81
2018-05-17T07:31:13.474Z,17.87
2018-05-17T07:31:49.069Z,17.70
2018-05-17T07:32:26.355Z,17.89
2018-05-17T07:33:01.675Z,17.84
2018-05-17T07:33:37.951Z,17.71
2018-05-17T07:34:13.588Z,17.73
2018-05-17T07:34:48.995Z,17.69
2018-05-17T07:35:24.573Z,17.55
2018-05-17T07:36:00.120Z,17.59
2018-05-17T07:36:36.571Z,17.55
2018-05-17T07:37:11.878Z,17.54
2018-05-17T07:37:47.299Z,17.51
2018-05-17T07:38:22.973Z,17.47
2018-05-17T07:38:58.339Z,17.44
2018-05-17T07:39:33.670Z,17.43
2018-05-17T07:40:09.168Z,17.40
2018-05-17T07:40:44.695Z,17.25
2018-05-17T07:41:20.225Z,17.40
2018-05-17T07:41:55.557Z,17.54
2018-05-17T07:42:30.776Z,17.62
2018-05-17T07:43:06.197Z,17.67
2018-05-17T07:43:41.644Z,17.59
2018-05-17T07:44:16.877Z,17.54
2018-05-17T07:44:52.038Z,17.47
2018-05-17T07:45:27.548Z,17.40
2018-05-17T07:46:02.737Z,17.40
2018-05-17T07:46:38.327Z,17.64
2018-05-17T07:47:13.649Z,17.88
2018-05-17T07:47:48.844Z,18.36
2018-05-17T07:48:24.187Z,18.68
2018-05-17T07:48:59.751Z,19.06
2018-05-17T07:49:35.658Z,19.20
2018-05-17T07:50:11.176Z,19.50
2018-05-17T07:50:47.656Z,19.88
2018-05-17T07:51:22.937Z,20.28
2018-05-17T07:51:58.291Z,20.50
2018-05-17T07:52:33.970Z,20.91
2018-05-17T07:53:09.413Z,21.23
2018-05-17T07:53:44.742Z,21.39
2018-05-17T07:54:20.185Z,21.74
2018-05-17T07:54:58.976Z,21.95
2018-05-17T07:55:37.829Z,21.97
2018-05-17T07:56:17.086Z,21.99
2018-05-17T07:56:54.257Z,21.95
2018-05-17T07:57:30.188Z,22.04